Pozuelo de Alarcon, Spain
Current Conditions -  °F | °C
As of 8:30 PM on Monday 24 Nov 2014 (Local Time) from LEVS Reporting Station
Clear Clear  
Wind Chill: 57°   Ceiling: Unl
Heat Index: 57°   Visibility: 6mi
Dew Point: 52°   Wind: 3mph
Humidity: 82%   Direction: 260°W
Pressure: 30.06"   Gusts: NA
Location:  40.44°N, 3.81°W
Report Text: LEVS 241930Z 26003KT CAVOK 14/11 Q1018
Loading
Personal Weather Stations






























Interactive Weather Map New forecast layout! Learn more

10-Day Weather Forecast

Advertisements
Track Severe Weather on mobile